AKDT,Max TemperatureF,Mean TemperatureF,Min TemperatureF,Max Dew PointF,MeanDew PointF,Min DewpointF,Max Humidity, Mean Humidity, Min Humidity, Max Sea Level PressureIn, Mean Sea Level PressureIn, Min Sea Level PressureIn, Max VisibilityMiles, Mean VisibilityMiles, Min VisibilityMiles, Max Wind SpeedMPH, Mean Wind SpeedMPH, Max Gust SpeedMPH,PrecipitationIn, CloudCover, Events, WindDirDegrees
2013-7-1,68,60,51,44,41,39,71,53,28,29.82,29.68,29.62,10,10,10,25,14,36,0.00,5,Rain,169
2013-7-2,61,54,48,41,38,35,69,55,32,29.87,29.73,29.64,10,10,10,21,13,31,0.00,7,,157
2013-7-3,64,54,44,40,37,34,82,54,26,30.00,29.96,29.89,10,10,10,17,11,23,0.00,4,,167
2013-7-4,62,53,44,39,37,36,74,54,32,30.06,30.03,30.01,10,10,10,26,14,38,0.00,5,,154
2013-7-5,61,54,46,46,42,37,97,69,38,30.11,30.07,30.03,10,10,9,25,15,33,0.08,7,Fog-Rain,150
2013-7-6,63,54,45,45,43,41,97,67,40,30.06,29.97,29.86,10,10,10,24,14,31,0.00,5,Rain,152
2013-7-7,63,56,48,48,44,40,86,68,46,29.84,29.71,29.62,10,10,10,20,9,28,0.08,7,Rain,138
2013-7-8,62,54,46,48,45,42,97,79,49,29.81,29.70,29.64,10,10,7,12,7,21,0.08,7,Rain,186
2013-7-9,64,54,45,49,46,42,97,76,46,29.98,29.91,29.83,10,10,9,13,5,,0.02,7,Rain,210
2013-7-10,66,52,39,51,47,40,100,81,45,30.01,29.98,29.96,10,10,2,8,3,,0.12,7,Rain,326
2013-7-11,72,54,37,49,44,37,100,75,24,30.00,29.96,29.91,10,7,1,16,5,22,0.00,3,Fog,334
2013-7-12,78,62,46,45,38,24,80,42,12,29.97,29.93,29.88,10,10,10,13,8,17,0.00,2,,14
2013-7-13,79,60,41,46,40,34,73,43,19,30.06,29.99,29.92,10,10,10,18,5,,0.00,2,,145
2013-7-14,82,66,50,51,48,45,83,54,24,30.21,30.16,30.09,10,10,10,20,8,,0.00,3,,190
2013-7-15,81,66,51,52,49,47,86,56,27,30.25,30.17,30.07,10,10,10,18,7,,0.00,3,,156
2013-7-16,81,68,55,49,47,42,72,50,23,30.14,30.06,29.97,10,10,10,11,5,,0.00,4,,181
2013-7-17,75,65,55,52,50,48,80,60,34,30.06,30.01,29.98,10,10,10,8,4,,0.00,7,Rain,255
2013-7-18,79,66,54,56,51,48,86,62,27,30.12,30.07,29.99,10,10,10,7,3,,0.00,6,Fog-Rain,301
2013-7-19,72,62,53,58,52,47,86,70,45,30.11,30.08,30.04,10,10,9,9,4,,0.03,7,Rain-Thunderstorm,230
2013-7-20,66,55,44,54,47,40,89,69,47,30.08,30.03,30.00,10,10,3,12,4,20,0.28,5,Rain,332
2013-7-21,69,53,37,44,42,37,97,57,30,30.08,30.01,29.97,10,10,10,21,9,29,0.00,4,,357
2013-7-22,78,66,54,47,45,42,64,47,24,30.05,30.03,30.00,10,10,10,17,12,28,0.00,2,,349
2013-7-23,82,62,43,48,44,40,86,49,17,30.11,30.04,29.97,10,10,10,8,5,,0.00,3,,328
2013-7-24,84,64,43,57,47,39,90,57,17,30.03,29.96,29.88,10,10,10,13,2,20,0.01,5,,311
2013-7-25,75,65,55,58,56,53,100,84,48,30.07,29.99,29.92,10,9,0,15,4,,0.24,7,Fog-Rain-Thunderstorm,167
2013-7-26,75,64,53,56,53,46,100,81,34,30.22,30.14,30.07,10,7,0,8,4,,0.00,6,Fog-Rain,166
2013-7-27,81,66,50,55,51,47,93,62,31,30.30,30.24,30.17,10,10,10,8,5,,0.00,3,,193
2013-7-28,84,68,51,56,51,45,92,56,24,30.26,30.18,30.08,10,10,10,7,4,,0.00,4,,260
2013-7-29,82,68,55,55,53,51,87,58,24,30.16,30.10,30.05,10,10,10,12,6,17,0.00,3,,178
2013-7-30,84,68,51,56,52,48,93,62,24,30.18,30.12,30.06,10,10,10,8,3,,0.00,3,Thunderstorm,174
2013-7-31,79,66,54,59,53,51,90,66,28,30.18,30.11,30.03,10,10,10,9,5,,0.00,4,Rain-Thunderstorm,145